createdAt,value
2023-02-28T00:01:13.804Z,13.90
2023-02-28T00:03:52.810Z,13.90
2023-02-28T00:06:29.662Z,14.00
2023-02-28T00:09:07.161Z,13.90
2023-02-28T00:11:47.996Z,13.90
2023-02-28T00:14:30.538Z,13.80
2023-02-28T00:17:10.186Z,13.80
2023-02-28T00:19:48.262Z,13.90
2023-02-28T00:22:26.593Z,13.90
2023-02-28T00:25:02.882Z,13.90
2023-02-28T00:27:42.202Z,13.90
2023-02-28T00:30:20.761Z,13.90
2023-02-28T00:32:56.878Z,14.00
2023-02-28T00:35:33.279Z,14.00
2023-02-28T00:38:12.481Z,14.00
2023-02-28T00:40:49.430Z,14.10
2023-02-28T00:43:31.029Z,14.10
2023-02-28T00:46:13.382Z,14.10
2023-02-28T00:48:51.173Z,14.00
2023-02-28T00:51:28.040Z,14.00
2023-02-28T00:54:06.267Z,14.00
2023-02-28T00:56:42.435Z,14.10
2023-02-28T00:59:23.810Z,14.10
2023-02-28T01:01:59.928Z,14.00
2023-02-28T01:04:36.550Z,14.00
2023-02-28T01:07:17.513Z,14.10
2023-02-28T01:09:56.370Z,14.10
2023-02-28T01:12:34.189Z,13.90
2023-02-28T01:15:18.105Z,14.00
2023-02-28T01:17:57.582Z,14.00
2023-02-28T01:20:34.693Z,14.00
2023-02-28T01:23:11.032Z,13.90
2023-02-28T01:25:47.750Z,13.90
2023-02-28T01:28:24.065Z,14.00
2023-02-28T01:31:11.696Z,14.00
2023-02-28T01:33:48.576Z,13.90
2023-02-28T01:36:28.084Z,13.80
2023-02-28T01:39:06.242Z,13.90
2023-02-28T01:41:42.771Z,13.90
2023-02-28T01:44:49.256Z,13.90
2023-02-28T01:47:28.999Z,14.00
2023-02-28T01:50:08.651Z,14.00
2023-02-28T01:52:45.829Z,14.10
2023-02-28T01:55:25.469Z,14.10
2023-02-28T01:58:04.745Z,14.10
2023-02-28T02:00:45.031Z,14.10
2023-02-28T02:03:26.101Z,14.10
2023-02-28T02:06:02.193Z,14.20
2023-02-28T02:08:41.489Z,14.30
2023-02-28T02:11:32.155Z,14.30
2023-02-28T02:14:31.013Z,14.20
2023-02-28T02:17:27.270Z,14.30
2023-02-28T02:20:44.396Z,14.40
2023-02-28T02:23:54.606Z,14.50
2023-02-28T02:26:59.802Z,14.40
2023-02-28T02:30:05.735Z,14.60
2023-02-28T02:33:26.014Z,14.60
2023-02-28T02:36:12.384Z,14.60
2023-02-28T02:38:56.000Z,14.60
2023-02-28T02:41:40.665Z,14.60
2023-02-28T02:44:25.532Z,14.70
2023-02-28T02:47:06.033Z,14.60
2023-02-28T02:49:47.122Z,14.70
2023-02-28T02:52:30.003Z,14.80
2023-02-28T02:55:10.101Z,14.70
2023-02-28T02:57:52.310Z,14.70
2023-02-28T03:00:44.217Z,14.90
2023-02-28T03:03:31.758Z,15.00
2023-02-28T03:06:12.863Z,14.90
2023-02-28T03:08:56.105Z,14.90
2023-02-28T03:11:34.518Z,15.00
2023-02-28T03:14:21.445Z,15.00
2023-02-28T03:17:34.481Z,15.00
2023-02-28T03:20:21.831Z,15.00
2023-02-28T03:23:16.087Z,15.10
2023-02-28T03:26:02.845Z,15.20
2023-02-28T03:28:49.389Z,15.10
2023-02-28T03:31:35.750Z,15.20
2023-02-28T03:34:18.025Z,15.30
2023-02-28T03:37:02.180Z,15.50
2023-02-28T03:39:43.763Z,15.50
2023-02-28T03:42:25.565Z,15.40
2023-02-28T03:45:06.223Z,15.30
2023-02-28T03:47:46.846Z,15.40
2023-02-28T03:50:27.955Z,15.40
2023-02-28T03:53:09.836Z,15.30
2023-02-28T03:56:00.817Z,15.30
2023-02-28T03:58:51.662Z,15.40
2023-02-28T04:01:33.447Z,15.30
2023-02-28T04:04:12.123Z,15.40
2023-02-28T04:07:06.800Z,15.60
2023-02-28T04:09:45.261Z,15.60
2023-02-28T04:12:23.863Z,15.70
2023-02-28T04:15:05.813Z,15.80
2023-02-28T04:17:42.374Z,16.00
2023-02-28T04:20:22.240Z,16.10
2023-02-28T04:23:00.913Z,16.10
2023-02-28T04:25:43.115Z,16.00
2023-02-28T04:28:20.028Z,15.80
2023-02-28T04:31:09.109Z,15.70
2023-02-28T04:33:45.592Z,15.70
2023-02-28T04:36:23.433Z,15.80
2023-02-28T04:39:01.872Z,16.00
2023-02-28T04:41:40.153Z,15.90
2023-02-28T04:44:19.994Z,15.60
2023-02-28T04:47:04.997Z,15.40
2023-02-28T04:49:44.844Z,15.60
2023-02-28T04:52:20.980Z,15.70
2023-02-28T04:55:02.488Z,15.90
2023-02-28T04:57:40.105Z,15.90
2023-02-28T05:00:19.244Z,15.90
2023-02-28T05:03:04.679Z,15.80
2023-02-28T05:05:42.689Z,15.70
2023-02-28T05:08:26.045Z,15.80
2023-02-28T05:11:04.241Z,15.70
2023-02-28T05:13:49.662Z,15.60
2023-02-28T05:16:26.939Z,15.50
2023-02-28T05:19:06.189Z,15.60
2023-02-28T05:21:44.509Z,15.60
2023-02-28T05:24:25.317Z,15.40
2023-02-28T05:27:03.946Z,15.30
2023-02-28T05:29:45.965Z,15.50
2023-02-28T05:32:24.719Z,15.80
2023-02-28T05:35:06.399Z,15.90
2023-02-28T05:37:43.122Z,15.90
2023-02-28T05:40:19.514Z,15.70
2023-02-28T05:42:57.140Z,15.90
2023-02-28T05:45:35.204Z,15.90
2023-02-28T05:48:17.636Z,15.80
2023-02-28T05:50:59.438Z,15.80
2023-02-28T05:53:42.389Z,15.80
2023-02-28T05:56:19.909Z,15.70
2023-02-28T05:58:58.779Z,15.50
2023-02-28T06:01:50.343Z,15.60
2023-02-28T06:04:32.019Z,15.50
2023-02-28T06:07:24.973Z,15.60
2023-02-28T06:10:02.572Z,15.50
2023-02-28T06:12:39.532Z,15.50
2023-02-28T06:15:19.530Z,15.20
2023-02-28T06:17:59.337Z,15.20
2023-02-28T06:20:36.983Z,15.50
2023-02-28T06:23:18.804Z,15.60
2023-02-28T06:25:55.712Z,15.60
2023-02-28T06:28:35.313Z,15.50
2023-02-28T06:31:24.911Z,15.40
2023-02-28T06:34:06.554Z,15.50
2023-02-28T06:36:43.582Z,15.50
2023-02-28T06:39:28.348Z,15.50
2023-02-28T06:42:04.807Z,15.50
2023-02-28T06:44:41.418Z,15.50
2023-02-28T06:47:18.344Z,15.60
2023-02-28T06:49:55.448Z,15.70
2023-02-28T06:52:33.528Z,15.70
2023-02-28T06:55:14.408Z,15.60
2023-02-28T06:57:54.290Z,15.60
2023-02-28T07:00:31.402Z,15.40
2023-02-28T07:03:08.003Z,15.40
2023-02-28T07:05:46.249Z,15.30
2023-02-28T07:08:23.013Z,15.40
2023-02-28T07:11:05.389Z,15.30
2023-02-28T07:13:50.341Z,15.30
2023-02-28T07:16:31.995Z,15.40
2023-02-28T07:19:10.923Z,15.50
2023-02-28T07:21:48.250Z,15.50
2023-02-28T07:24:30.741Z,15.50
2023-02-28T07:27:13.643Z,15.60
2023-02-28T07:29:59.966Z,15.80
2023-02-28T07:32:40.306Z,15.40
2023-02-28T07:35:17.959Z,15.50
2023-02-28T07:37:54.827Z,15.50
2023-02-28T07:40:32.653Z,15.40
2023-02-28T07:43:14.209Z,15.40
2023-02-28T07:45:59.769Z,15.70
2023-02-28T07:48:38.885Z,15.60
2023-02-28T07:51:18.720Z,15.60
2023-02-28T07:53:57.218Z,15.70
2023-02-28T07:56:35.616Z,15.50
2023-02-28T07:59:14.808Z,15.50
2023-02-28T08:01:53.068Z,15.40
2023-02-28T08:04:35.808Z,15.30
2023-02-28T08:07:16.067Z,15.30
2023-02-28T08:09:55.949Z,15.40
2023-02-28T08:12:37.920Z,15.50
2023-02-28T08:15:17.191Z,15.70
2023-02-28T08:17:56.377Z,15.60
2023-02-28T08:20:39.433Z,15.70
2023-02-28T08:23:17.883Z,15.90
2023-02-28T08:26:02.803Z,16.00
2023-02-28T08:28:42.385Z,15.90
2023-02-28T08:31:23.370Z,15.90
2023-02-28T08:34:03.201Z,15.70
2023-02-28T08:36:40.938Z,15.50
2023-02-28T08:39:17.788Z,15.50
2023-02-28T08:42:06.924Z,15.60
2023-02-28T08:44:44.039Z,15.40
2023-02-28T08:47:22.910Z,15.40
2023-02-28T08:50:00.036Z,15.30
2023-02-28T08:52:36.361Z,15.30
2023-02-28T08:55:15.531Z,15.40
2023-02-28T08:57:55.397Z,15.40
2023-02-28T09:00:35.404Z,15.50
2023-02-28T09:03:19.979Z,15.50
2023-02-28T09:06:04.385Z,15.40
2023-02-28T09:08:44.378Z,15.20
2023-02-28T09:11:21.777Z,15.40
2023-02-28T09:14:03.989Z,15.50
2023-02-28T09:16:44.473Z,15.60
2023-02-28T09:19:34.539Z,15.50
2023-02-28T09:22:15.616Z,15.30
2023-02-28T09:24:53.002Z,15.30
2023-02-28T09:27:29.702Z,15.30
2023-02-28T09:30:08.591Z,15.20
2023-02-28T09:32:55.102Z,15.20
2023-02-28T09:35:39.832Z,15.30
2023-02-28T09:38:22.451Z,15.30
2023-02-28T09:41:05.106Z,15.40
2023-02-28T09:43:48.116Z,15.30
2023-02-28T09:46:37.681Z,15.30
2023-02-28T09:49:18.618Z,15.30
2023-02-28T09:52:02.447Z,15.20
2023-02-28T09:54:41.690Z,15.20
2023-02-28T09:57:27.768Z,15.30
2023-02-28T10:00:18.156Z,15.30
2023-02-28T10:03:31.676Z,15.30
2023-02-28T10:06:16.907Z,15.40
2023-02-28T10:09:03.877Z,15.30
2023-02-28T10:11:49.103Z,15.30
2023-02-28T10:14:28.778Z,15.40
2023-02-28T10:17:09.220Z,15.30
2023-02-28T10:19:55.413Z,15.30
2023-02-28T10:22:36.660Z,15.20
2023-02-28T10:25:25.929Z,15.20
2023-02-28T10:28:15.541Z,15.20
2023-02-28T10:30:55.838Z,15.10
2023-02-28T10:33:45.668Z,15.10
2023-02-28T10:36:24.329Z,15.10
2023-02-28T10:39:02.850Z,15.10
2023-02-28T10:41:48.329Z,15.00
2023-02-28T10:44:29.315Z,15.10
2023-02-28T10:47:08.324Z,15.00
2023-02-28T10:49:52.791Z,14.90
2023-02-28T10:52:45.312Z,15.00
2023-02-28T10:55:36.055Z,14.90
2023-02-28T10:58:29.769Z,14.90
2023-02-28T11:01:17.546Z,14.80
2023-02-28T11:03:54.848Z,14.80
2023-02-28T11:06:35.500Z,14.80
2023-02-28T11:09:24.061Z,14.80
2023-02-28T11:12:02.348Z,14.80
2023-02-28T11:14:57.630Z,14.80
2023-02-28T11:17:42.637Z,14.90
2023-02-28T11:20:31.598Z,14.80
2023-02-28T11:23:23.651Z,14.80
2023-02-28T11:26:12.393Z,14.80
2023-02-28T11:28:49.787Z,14.80
2023-02-28T11:31:34.669Z,14.70
2023-02-28T11:34:35.899Z,14.70
2023-02-28T11:37:19.528Z,14.70
2023-02-28T11:40:00.214Z,14.70
2023-02-28T11:42:54.074Z,14.70
2023-02-28T11:45:49.806Z,14.60
2023-02-28T11:48:44.009Z,14.60
2023-02-28T11:51:43.316Z,14.60
2023-02-28T11:54:44.235Z,14.60
2023-02-28T11:57:35.526Z,14.70
2023-02-28T12:00:26.261Z,14.70
2023-02-28T12:03:18.283Z,14.70
2023-02-28T12:06:25.633Z,14.70
2023-02-28T12:09:20.878Z,14.80
2023-02-28T12:12:13.586Z,14.70
2023-02-28T12:15:28.051Z,14.70
2023-02-28T12:18:28.892Z,14.70
2023-02-28T12:21:22.296Z,14.60
2023-02-28T12:24:30.942Z,14.70
2023-02-28T12:27:11.822Z,14.70
2023-02-28T12:30:04.351Z,14.60
2023-02-28T12:32:45.214Z,14.60
2023-02-28T12:35:30.916Z,14.60
2023-02-28T12:38:15.193Z,14.50
2023-02-28T12:40:56.731Z,14.50
2023-02-28T12:43:39.589Z,14.40
2023-02-28T12:46:24.718Z,14.40
2023-02-28T12:49:05.023Z,14.40
2023-02-28T12:51:55.907Z,14.50
2023-02-28T12:54:42.011Z,14.60
2023-02-28T12:57:27.767Z,14.50
2023-02-28T13:00:10.364Z,14.40
2023-02-28T13:03:32.608Z,14.50
2023-02-28T13:06:42.842Z,14.40
2023-02-28T13:09:24.337Z,14.50
2023-02-28T13:12:20.386Z,14.40
2023-02-28T13:15:08.725Z,14.40
2023-02-28T13:17:51.744Z,14.50
2023-02-28T13:20:40.000Z,14.50
2023-02-28T13:23:49.805Z,14.50
2023-02-28T13:26:30.758Z,14.50
2023-02-28T13:29:10.727Z,14.40
2023-02-28T13:32:21.162Z,14.40
2023-02-28T13:35:59.094Z,14.50
2023-02-28T13:39:04.043Z,14.40
2023-02-28T13:42:00.747Z,14.40
2023-02-28T13:45:28.864Z,14.40
2023-02-28T13:48:10.378Z,14.60
2023-02-28T13:50:51.465Z,14.60
2023-02-28T13:53:56.750Z,14.60
2023-02-28T13:56:44.867Z,14.50
2023-02-28T13:59:37.210Z,14.50
2023-02-28T14:02:42.675Z,14.50
2023-02-28T14:05:22.023Z,14.60
2023-02-28T14:07:58.438Z,14.70
2023-02-28T14:10:35.292Z,14.60
2023-02-28T14:13:18.294Z,14.60
2023-02-28T14:16:04.491Z,14.60
2023-02-28T14:18:49.067Z,14.60
2023-02-28T14:21:31.830Z,14.60
2023-02-28T14:24:53.743Z,14.60
2023-02-28T14:27:50.837Z,14.60
2023-02-28T14:31:08.678Z,14.60
2023-02-28T14:34:11.740Z,14.60
2023-02-28T14:36:56.485Z,14.60
2023-02-28T14:39:36.413Z,14.60
2023-02-28T14:42:43.435Z,14.60
2023-02-28T14:45:34.099Z,14.50
2023-02-28T14:48:17.900Z,14.60
2023-02-28T14:51:08.375Z,14.60
2023-02-28T14:53:46.254Z,14.60
2023-02-28T14:56:32.523Z,14.60
2023-02-28T14:59:32.819Z,14.60
2023-02-28T15:02:43.830Z,14.50
2023-02-28T15:05:36.554Z,14.50
2023-02-28T15:08:27.678Z,14.50
2023-02-28T15:11:10.330Z,14.50
2023-02-28T15:13:52.841Z,14.50
2023-02-28T15:16:39.897Z,14.50
2023-02-28T15:19:27.026Z,14.50
2023-02-28T15:22:19.575Z,14.50
2023-02-28T15:25:08.353Z,14.50
2023-02-28T15:27:50.468Z,14.50
2023-02-28T15:30:32.242Z,14.50
2023-02-28T15:33:31.490Z,14.40
2023-02-28T15:36:23.729Z,14.40
2023-02-28T15:39:15.898Z,14.40
2023-02-28T15:41:58.813Z,14.40
2023-02-28T15:44:48.142Z,14.40
2023-02-28T15:47:38.892Z,14.30
2023-02-28T15:50:23.436Z,14.30
2023-02-28T15:53:01.624Z,14.30
2023-02-28T15:55:41.108Z,14.30
2023-02-28T15:58:27.030Z,14.30
2023-02-28T16:01:34.832Z,14.30
2023-02-28T16:04:32.403Z,14.40
2023-02-28T16:07:22.587Z,14.40
2023-02-28T16:10:00.651Z,14.30
2023-02-28T16:12:39.539Z,14.30
2023-02-28T16:15:29.305Z,14.30
2023-02-28T16:18:12.947Z,14.30
2023-02-28T16:20:51.297Z,14.30
2023-02-28T16:23:35.703Z,14.30
2023-02-28T16:26:19.382Z,14.30
2023-02-28T16:29:01.084Z,14.20
2023-02-28T16:31:57.781Z,14.30
2023-02-28T16:34:36.485Z,14.20
2023-02-28T16:37:25.247Z,14.20
2023-02-28T16:40:03.396Z,14.30
2023-02-28T16:42:39.992Z,14.20
2023-02-28T16:45:26.774Z,14.20
2023-02-28T16:48:08.727Z,14.20
2023-02-28T16:50:47.172Z,14.20
2023-02-28T16:53:28.748Z,14.20
2023-02-28T16:56:11.222Z,14.20
2023-02-28T16:58:51.711Z,14.20
2023-02-28T17:01:35.602Z,14.10
2023-02-28T17:04:23.876Z,14.20
2023-02-28T17:07:01.421Z,14.20
2023-02-28T17:09:43.466Z,14.20
2023-02-28T17:12:21.251Z,14.20
2023-02-28T17:14:57.637Z,14.10
2023-02-28T17:17:34.783Z,14.20
2023-02-28T17:20:17.338Z,14.20
2023-02-28T17:22:53.903Z,14.20
2023-02-28T17:25:36.682Z,14.20
2023-02-28T17:28:14.570Z,14.10
2023-02-28T17:30:50.899Z,14.10
2023-02-28T17:33:31.320Z,14.10
2023-02-28T17:36:10.236Z,14.10
2023-02-28T17:38:48.158Z,14.10
2023-02-28T17:41:24.365Z,14.00
2023-02-28T17:44:00.765Z,14.00
2023-02-28T17:46:36.800Z,13.90
2023-02-28T17:49:12.395Z,13.90
2023-02-28T17:51:52.903Z,13.80
2023-02-28T17:54:28.674Z,13.60
2023-02-28T17:57:04.339Z,13.60
2023-02-28T17:59:40.579Z,13.50
2023-02-28T18:02:27.413Z,13.50
2023-02-28T18:05:05.886Z,13.60
2023-02-28T18:07:44.834Z,13.50
2023-02-28T18:10:24.314Z,13.50
2023-02-28T18:12:59.980Z,13.60
2023-02-28T18:15:35.952Z,13.60
2023-02-28T18:18:14.456Z,13.70
2023-02-28T18:20:52.992Z,13.60
2023-02-28T18:23:31.064Z,13.60
2023-02-28T18:26:07.204Z,13.40
2023-02-28T18:28:44.203Z,13.30
2023-02-28T18:31:22.440Z,13.50
2023-02-28T18:34:00.470Z,13.20
2023-02-28T18:36:36.671Z,13.00
2023-02-28T18:39:14.612Z,13.00
2023-02-28T18:41:51.071Z,13.00
2023-02-28T18:44:27.329Z,13.00
2023-02-28T18:47:03.403Z,13.00
2023-02-28T18:49:49.205Z,13.10
2023-02-28T18:52:25.356Z,13.00
2023-02-28T18:55:03.275Z,12.90
2023-02-28T18:57:40.620Z,12.90
2023-02-28T19:00:17.490Z,13.00
2023-02-28T19:02:53.094Z,13.10
2023-02-28T19:05:29.415Z,13.20
2023-02-28T19:08:04.827Z,13.40
2023-02-28T19:10:45.358Z,13.40
2023-02-28T19:13:22.151Z,13.50
2023-02-28T19:16:06.374Z,13.50
2023-02-28T19:18:42.977Z,13.50
2023-02-28T19:21:19.137Z,13.50
2023-02-28T19:23:54.177Z,13.50
2023-02-28T19:26:32.831Z,13.50
2023-02-28T19:29:09.695Z,13.50
2023-02-28T19:31:46.660Z,13.50
2023-02-28T19:34:22.225Z,13.50
2023-02-28T19:36:56.690Z,13.50
2023-02-28T19:39:31.795Z,13.60
2023-02-28T19:42:09.330Z,13.60
2023-02-28T19:44:43.752Z,13.60
2023-02-28T19:47:18.425Z,13.60
2023-02-28T19:49:56.077Z,13.70
2023-02-28T19:52:31.907Z,13.70
2023-02-28T19:55:07.011Z,13.80
2023-02-28T19:57:44.139Z,13.70
2023-02-28T20:00:22.290Z,13.70
2023-02-28T20:02:57.079Z,13.60
2023-02-28T20:05:32.261Z,13.70
2023-02-28T20:08:06.558Z,13.70
2023-02-28T20:10:41.278Z,13.80
2023-02-28T20:13:18.650Z,13.70
2023-02-28T20:15:52.770Z,13.70
2023-02-28T20:18:26.658Z,13.70
2023-02-28T20:21:01.007Z,13.70
2023-02-28T20:23:34.973Z,13.80
2023-02-28T20:26:09.089Z,13.70
2023-02-28T20:28:46.160Z,13.50
2023-02-28T20:31:21.956Z,13.40
2023-02-28T20:33:56.478Z,13.40
2023-02-28T20:36:31.031Z,13.30
2023-02-28T20:39:07.461Z,13.20
2023-02-28T20:41:41.692Z,13.20
2023-02-28T20:44:19.234Z,13.20
2023-02-28T20:46:53.306Z,13.20
2023-02-28T20:49:28.206Z,13.10
2023-02-28T20:52:02.381Z,13.00
2023-02-28T20:54:37.285Z,12.90
2023-02-28T20:57:11.942Z,12.90
2023-02-28T20:59:48.358Z,12.90
2023-02-28T21:02:23.901Z,12.80
2023-02-28T21:04:57.609Z,12.80
2023-02-28T21:07:32.503Z,12.80
2023-02-28T21:10:09.349Z,12.70
2023-02-28T21:12:44.894Z,12.80
2023-02-28T21:15:21.568Z,12.80
2023-02-28T21:17:56.127Z,12.80
2023-02-28T21:20:29.652Z,12.90
2023-02-28T21:23:04.226Z,12.80
2023-02-28T21:25:38.882Z,12.80
2023-02-28T21:28:13.304Z,12.80
2023-02-28T21:30:49.717Z,12.70
2023-02-28T21:33:23.706Z,12.80
2023-02-28T21:36:03.763Z,12.90
2023-02-28T21:38:38.586Z,12.80
2023-02-28T21:41:14.953Z,12.90
2023-02-28T21:43:50.006Z,12.80
2023-02-28T21:46:28.260Z,12.80
2023-02-28T21:49:03.320Z,12.80
2023-02-28T21:51:38.459Z,12.80
2023-02-28T21:54:13.816Z,12.80
2023-02-28T21:56:49.117Z,12.80
2023-02-28T21:59:23.174Z,12.80
2023-02-28T22:01:59.631Z,12.90
2023-02-28T22:04:36.174Z,12.90
2023-02-28T22:07:11.359Z,12.80
2023-02-28T22:09:46.504Z,12.80
2023-02-28T22:12:21.832Z,12.90
2023-02-28T22:14:56.832Z,12.90
2023-02-28T22:17:33.021Z,12.90
2023-02-28T22:20:07.364Z,12.90
2023-02-28T22:22:41.005Z,13.00
2023-02-28T22:25:16.322Z,13.00
2023-02-28T22:27:51.246Z,12.90
2023-02-28T22:30:25.710Z,12.90
2023-02-28T22:33:03.349Z,12.90
2023-02-28T22:35:38.302Z,12.90
2023-02-28T22:38:13.567Z,12.90
2023-02-28T22:40:48.470Z,12.90
2023-02-28T22:43:23.636Z,12.80
2023-02-28T22:45:57.523Z,12.80
2023-02-28T22:48:34.476Z,12.80
2023-02-28T22:51:12.492Z,12.80
2023-02-28T22:53:49.584Z,12.80
2023-02-28T22:56:28.807Z,12.80
2023-02-28T22:59:06.178Z,12.80
2023-02-28T23:01:42.148Z,12.90
2023-02-28T23:04:20.397Z,12.80
2023-02-28T23:06:56.043Z,12.80
2023-02-28T23:09:32.396Z,12.90
2023-02-28T23:12:08.287Z,12.90
2023-02-28T23:14:46.738Z,12.90
2023-02-28T23:17:22.056Z,12.90
2023-02-28T23:19:59.781Z,12.90
2023-02-28T23:22:36.794Z,13.00
2023-02-28T23:25:14.803Z,13.00
2023-02-28T23:27:51.079Z,13.00
2023-02-28T23:30:27.218Z,13.00
2023-02-28T23:33:03.176Z,12.90
2023-02-28T23:35:43.513Z,13.00
2023-02-28T23:38:19.188Z,13.00
2023-02-28T23:40:55.439Z,13.00
2023-02-28T23:43:32.710Z,13.00
2023-02-28T23:46:09.914Z,13.00
2023-02-28T23:48:46.605Z,13.00
2023-02-28T23:51:26.205Z,13.00
2023-02-28T23:54:05.714Z,13.10
2023-02-28T23:56:44.045Z,13.20
2023-02-28T23:59:21.477Z,13.20
